Sunday, June 17, 2018, 10:10 PM EDT
Back to Local

KHPN, White Plains Westchester

Location: Greenwich, NY, United States Lat: 41.067
Local Time: 10:10 PM EDT ( 2:10 GMT) Lon: -73.7
Time Zone: US/Eastern Elev: 439 ft

Show me the last for .
Show Coded

Time T Td Feel RH Dir Speed Gust Alt SLP Vis Weather Sky Remarks
2018-06-17 20:56 74 54 77 49 160° 5 - 30.06 30.04 10 CLR None
2018-06-17 19:56 77 51 78 40 160° 6 - 30.06 30.04 10 CLR 6-hr Min Temp (8pm): 77.0°F
6-hr Max Temp (8pm): 87.1°F
2018-06-17 18:56 81 51 - 35 180° 8 - 30.07 30.05 10 CLR None
2018-06-17 17:56 84 50 - 30 180° 7 - 30.06 30.04 10 CLR None
2018-06-17 16:56 86 50 - 28 170° 7 - 30.07 30.05 10 CLR None
2018-06-17 15:56 86 50 - 28 170° 8 - 30.06 30.04 10 CLR None
2018-06-17 14:56 87 51 - 29 170° 9 - 30.06 30.04 10 CLR None
2018-06-17 13:56 86 48 - 26 Variable 3 - 30.06 30.04 10 CLR 6-hr Min Temp (2pm): 72.0°F
6-hr Max Temp (2pm): 87.1°F
2018-06-17 12:56 85 48 - 27 10° 5 - 30.08 30.06 10 CLR None
2018-06-17 11:56 84 51 - 32 320° 6 - 30.10 30.08 10 CLR None
2018-06-17 10:56 82 52 - 35 300° 5 - 30.11 30.09 10 CLR None
2018-06-17 09:56 80 55 80 42 310° 5 - 30.09 30.07 10 CLR None
2018-06-17 08:56 78 56 79 46 320° 6 - 30.09 30.07 10 CLR None
2018-06-17 07:56 71 56 76 58 330° 6 - 30.08 30.06 10 CLR 6-hr Min Temp (8am): 57.9°F
6-hr Max Temp (8am): 71.1°F
2018-06-17 06:56 64 56 - 74 290° 7 - 30.07 30.05 10 CLR None
2018-06-17 05:56 61 56 - 83 300° 8 - 30.05 30.04 10 CLR None
2018-06-17 04:56 60 55 - 83 - Calm - 30.04 30.03 10 CLR None
2018-06-17 03:56 61 56 - 83 320° 7 - 30.04 30.03 10 CLR None
2018-06-17 02:56 61 57 - 86 290° 5 - 30.03 30.01 10 CLR None
2018-06-17 01:56 61 55 - 80 310° 6 - 30.02 30.01 10 CLR 6-hr Min Temp (2am): 61.0°F
6-hr Max Temp (2am): 73.0°F
2018-06-17 00:56 62 55 - 77 320° 5 - 30.04 30.02 10 CLR 24-hr Min Temp (1am): 54.0°F
24-hr Max Temp (1am): 82.0°F
2018-06-16 23:56 63 54 - 72 - Calm - 30.04 30.03 10 CLR None
2018-06-16 22:56 64 54 - 69 - Calm - 30.03 30.01 10 CLR None

Support USWX by starting your Amazon purchase here.